Time;durP1;ratioP1;P1;durP2;ratioP2;P2;SDS_P1;SDS_P2;PMS_P1;PMS_P2;Temp;Humidity;BMP_temperature;BMP_pressure;BME280_temperature;BME280_humidity;BME280_pressure;Samples;Min_cycle;Max_cycle;Signal;HPM_P1;HPM_P2
2023/06/03 00:01:32;;;;;;;8.40;2.35;;;;;;;;;;5026224;28;20096;-63
2023/06/03 00:04:00;;;;;;;5.55;2.38;;;;;;;;;;5030063;28;20042;-63
2023/06/03 00:06:29;;;;;;;3.50;2.22;;;;;;;;;;5029477;28;20160;-64
2023/06/03 00:08:57;;;;;;;8.73;2.60;;;;;;;;;;5030074;28;20045;-61
2023/06/03 00:11:26;;;;;;;4.18;2.20;;;;;;;;;;5031982;28;20561;-62
2023/06/03 00:13:56;;;;;;;4.57;2.03;;;;;;;;;;5039118;28;20075;-63
2023/06/03 00:16:26;;;;;;;5.28;2.45;;;;;;;;;;5028659;28;20568;-65
2023/06/03 00:18:54;;;;;;;5.45;2.20;;;;;;;;;;5029748;28;20053;-62
2023/06/03 00:21:23;;;;;;;5.35;2.42;;;;;;;;;;5029988;28;20502;-63
2023/06/03 00:23:52;;;;;;;4.78;2.65;;;;;;;;;;5029973;28;20050;-62
2023/06/03 00:26:21;;;;;;;4.53;2.30;;;;;;;;;;5028983;28;20100;-64
2023/06/03 00:28:50;;;;;;;8.55;2.80;;;;;;;;;;5029863;28;20438;-62
2023/06/03 00:31:20;;;;;;;8.20;2.00;;;;;;;;;;5029633;28;20049;-60
2023/06/03 00:33:49;;;;;;;3.88;2.25;;;;;;;;;;5033906;28;20044;-62
2023/06/03 00:36:17;;;;;;;5.40;2.53;;;;;;;;;;5017954;28;20149;-61
2023/06/03 00:38:45;;;;;;;10.63;2.53;;;;;;;;;;5020103;28;20084;-63
2023/06/03 00:41:14;;;;;;;4.75;2.13;;;;;;;;;;5028797;28;20061;-62
2023/06/03 00:43:42;;;;;;;3.05;2.17;;;;;;;;;;5029937;28;20053;-59
2023/06/03 00:46:11;;;;;;;5.15;2.38;;;;;;;;;;5032294;28;20076;-62
2023/06/03 00:48:40;;;;;;;5.95;2.47;;;;;;;;;;5029090;28;20049;-61
2023/06/03 00:51:09;;;;;;;8.15;2.30;;;;;;;;;;5033065;28;20517;-60
2023/06/03 00:53:37;;;;;;;3.63;2.10;;;;;;;;;;5032925;28;20481;-61
2023/06/03 00:56:06;;;;;;;7.75;2.10;;;;;;;;;;5035973;28;20524;-60
2023/06/03 00:58:34;;;;;;;5.63;2.47;;;;;;;;;;5048115;28;20489;-60
2023/06/03 01:01:03;;;;;;;6.93;1.92;;;;;;;;;;5052982;28;20115;-59
2023/06/03 01:03:32;;;;;;;5.25;2.38;;;;;;;;;;5044182;28;20103;-61
2023/06/03 01:06:14;;;;;;;6.60;2.33;;;;;;;;;;5031949;28;20060;-61
2023/06/03 01:08:46;;;;;;;2.88;1.83;;;;;;;;;;5030319;28;20049;-60
2023/06/03 01:11:17;;;;;;;3.42;1.98;;;;;;;;;;5032531;28;20050;-59
2023/06/03 01:13:49;;;;;;;3.15;1.95;;;;;;;;;;5032773;28;20045;-60
2023/06/03 01:16:19;;;;;;;3.67;1.90;;;;;;;;;;5031766;28;20103;-60
2023/06/03 01:18:48;;;;;;;4.80;2.15;;;;;;;;;;5034879;28;20118;-60
2023/06/03 01:21:18;;;;;;;3.30;2.15;;;;;;;;;;5046977;28;20461;-60
2023/06/03 01:23:48;;;;;;;3.83;1.80;;;;;;;;;;5024970;28;20046;-61
2023/06/03 01:26:19;;;;;;;7.28;2.10;;;;;;;;;;5032088;28;20152;-60
2023/06/03 01:28:49;;;;;;;4.10;2.22;;;;;;;;;;5037380;28;20041;-61
2023/06/03 01:31:18;;;;;;;4.35;2.38;;;;;;;;;;5020143;28;20513;-61
2023/06/03 01:33:46;;;;;;;5.18;2.53;;;;;;;;;;5037409;28;20079;-61
2023/06/03 01:36:15;;;;;;;6.53;3.00;;;;;;;;;;5022256;28;20391;-62
2023/06/03 01:38:43;;;;;;;10.20;2.47;;;;;;;;;;5037109;28;20538;-61
2023/06/03 01:41:13;;;;;;;4.68;1.83;;;;;;;;;;5032402;28;20510;-60
2023/06/03 01:43:42;;;;;;;5.20;1.92;;;;;;;;;;5032293;28;20486;-60
2023/06/03 01:46:10;;;;;;;7.45;2.25;;;;;;;;;;5031944;28;20224;-61
2023/06/03 01:48:39;;;;;;;4.05;2.60;;;;;;;;;;5031827;28;20037;-60
2023/06/03 01:51:07;;;;;;;3.53;1.85;;;;;;;;;;5031646;28;20623;-60
2023/06/03 01:53:36;;;;;;;4.28;2.38;;;;;;;;;;5030015;28;20486;-63
2023/06/03 01:56:04;;;;;;;8.77;2.35;;;;;;;;;;5031137;28;20147;-59
2023/06/03 01:58:34;;;;;;;5.63;2.60;;;;;;;;;;5031654;28;20665;-59
2023/06/03 02:01:03;;;;;;;7.85;2.15;;;;;;;;;;5032142;28;20045;-60
2023/06/03 02:03:31;;;;;;;4.22;1.85;;;;;;;;;;5030795;28;20058;-61
2023/06/03 02:06:00;;;;;;;3.85;2.10;;;;;;;;;;5030897;28;20506;-60
2023/06/03 02:08:28;;;;;;;5.68;2.35;;;;;;;;;;5031568;28;20574;-59
2023/06/03 02:10:58;;;;;;;3.05;1.63;;;;;;;;;;5038293;28;20106;-59
2023/06/03 02:13:26;;;;;;;7.20;2.50;;;;;;;;;;5031756;28;20470;-61
2023/06/03 02:15:56;;;;;;;6.30;2.35;;;;;;;;;;5031004;28;20123;-62
2023/06/03 02:18:24;;;;;;;4.35;1.90;;;;;;;;;;5030477;28;20057;-60
2023/06/03 02:20:52;;;;;;;4.10;1.75;;;;;;;;;;5031385;28;20462;-60
2023/06/03 02:23:21;;;;;;;4.38;1.70;;;;;;;;;;5031303;28;20045;-60
2023/06/03 02:25:49;;;;;;;3.75;2.22;;;;;;;;;;5030924;28;20534;-60
2023/06/03 02:28:22;;;;;;;10.13;2.10;;;;;;;;;;5030849;28;20052;-61
2023/06/03 02:30:50;;;;;;;5.95;2.00;;;;;;;;;;5030276;28;20532;-62
2023/06/03 02:33:20;;;;;;;4.00;1.67;;;;;;;;;;5032305;28;20077;-60
2023/06/03 02:35:48;;;;;;;2.83;1.95;;;;;;;;;;5018951;28;20050;-59
2023/06/03 02:38:17;;;;;;;3.55;2.20;;;;;;;;;;5030921;28;20041;-60
2023/06/03 02:40:45;;;;;;;4.25;2.40;;;;;;;;;;5031261;28;20049;-62
2023/06/03 02:43:14;;;;;;;4.72;1.95;;;;;;;;;;5030891;28;20612;-61
2023/06/03 02:45:42;;;;;;;2.72;2.05;;;;;;;;;;5037208;28;20119;-59
2023/06/03 02:48:11;;;;;;;3.70;1.85;;;;;;;;;;5030255;28;20052;-60
2023/06/03 02:50:41;;;;;;;2.80;1.80;;;;;;;;;;5031405;28;20084;-59
2023/06/03 02:53:11;;;;;;;2.30;1.70;;;;;;;;;;5030199;28;20056;-60
2023/06/03 02:55:39;;;;;;;4.03;2.67;;;;;;;;;;5029916;28;20050;-60
2023/06/03 02:58:08;;;;;;;6.10;1.83;;;;;;;;;;5030193;28;20068;-60
2023/06/03 03:00:36;;;;;;;5.30;2.28;;;;;;;;;;5030980;28;20061;-60
2023/06/03 03:03:04;;;;;;;6.95;2.13;;;;;;;;;;5029889;28;20584;-60
2023/06/03 03:05:34;;;;;;;4.15;2.08;;;;;;;;;;5030202;28;20045;-59
2023/06/03 03:08:03;;;;;;;3.22;2.10;;;;;;;;;;5029980;28;20045;-60
2023/06/03 03:10:32;;;;;;;4.43;1.90;;;;;;;;;;5030606;28;20131;-60
2023/06/03 03:13:00;;;;;;;6.32;2.90;;;;;;;;;;5030377;28;20514;-59
2023/06/03 03:15:29;;;;;;;2.65;1.92;;;;;;;;;;5030151;28;20119;-59
2023/06/03 03:17:57;;;;;;;3.55;1.95;;;;;;;;;;5029377;28;20449;-62
2023/06/03 03:20:28;;;;;;;2.63;1.58;;;;;;;;;;5030167;28;20204;-61
2023/06/03 03:22:57;;;;;;;4.95;1.75;;;;;;;;;;5030456;28;20057;-59
2023/06/03 03:25:27;;;;;;;4.55;2.20;;;;;;;;;;5029967;28;20125;-60
2023/06/03 03:27:56;;;;;;;5.68;1.88;;;;;;;;;;5029927;28;20111;-59
2023/06/03 03:30:24;;;;;;;3.97;2.05;;;;;;;;;;5030159;28;20080;-61
2023/06/03 03:32:53;;;;;;;4.85;2.08;;;;;;;;;;5029390;28;20050;-60
2023/06/03 03:35:22;;;;;;;3.42;1.73;;;;;;;;;;5026444;28;20497;-59
2023/06/03 03:37:57;;;;;;;5.53;2.05;;;;;;;;;;5030138;28;20079;-58
2023/06/03 03:40:26;;;;;;;3.63;2.10;;;;;;;;;;5030025;28;20053;-61
2023/06/03 03:42:56;;;;;;;7.10;2.13;;;;;;;;;;5030048;28;20058;-60
2023/06/03 03:45:27;;;;;;;4.38;2.05;;;;;;;;;;5029454;28;20477;-60
2023/06/03 03:48:00;;;;;;;6.28;1.98;;;;;;;;;;5029749;28;20046;-60
2023/06/03 03:50:42;;;;;;;6.20;2.10;;;;;;;;;;5029333;28;20046;-59
2023/06/03 03:53:13;;;;;;;4.57;1.98;;;;;;;;;;5037671;28;20053;-59
2023/06/03 03:55:44;;;;;;;3.00;1.63;;;;;;;;;;5029003;28;20128;-59
2023/06/03 03:58:30;;;;;;;3.70;1.48;;;;;;;;;;5029876;28;20053;-59
2023/06/03 04:01:00;;;;;;;3.53;1.83;;;;;;;;;;5023845;28;20049;-59
2023/06/03 04:03:35;;;;;;;2.53;1.65;;;;;;;;;;5029263;28;20458;-60
2023/06/03 04:06:04;;;;;;;2.97;1.63;;;;;;;;;;5028892;28;20348;-61
2023/06/03 04:08:38;;;;;;;3.30;1.98;;;;;;;;;;5024937;28;20518;-61
2023/06/03 04:11:09;;;;;;;2.03;1.17;;;;;;;;;;5031459;28;20053;-61
2023/06/03 04:13:38;;;;;;;3.90;2.13;;;;;;;;;;5030234;28;20060;-60
2023/06/03 04:16:11;;;;;;;5.32;1.60;;;;;;;;;;5032899;28;20131;-62
2023/06/03 04:18:43;;;;;;;1.80;1.20;;;;;;;;;;5033855;28;20064;-61
2023/06/03 04:21:15;;;;;;;3.05;1.85;;;;;;;;;;5033550;28;20046;-60
2023/06/03 04:23:43;;;;;;;3.33;1.75;;;;;;;;;;5032604;28;20052;-60
2023/06/03 04:26:15;;;;;;;2.65;1.38;;;;;;;;;;5033458;28;20049;-61
2023/06/03 04:28:44;;;;;;;6.18;1.83;;;;;;;;;;5036383;28;20046;-64
2023/06/03 04:31:12;;;;;;;3.95;1.67;;;;;;;;;;5020406;28;20079;-61
2023/06/03 04:33:41;;;;;;;6.28;2.10;;;;;;;;;;5038060;28;20501;-61
2023/06/03 04:36:09;;;;;;;4.85;1.75;;;;;;;;;;5020719;28;20120;-60
2023/06/03 04:38:38;;;;;;;6.47;1.75;;;;;;;;;;5032841;28;20037;-61
2023/06/03 04:41:06;;;;;;;1.98;1.30;;;;;;;;;;5032758;28;20058;-64
2023/06/03 04:43:38;;;;;;;3.95;2.03;;;;;;;;;;5034836;28;20482;-63
2023/06/03 04:46:06;;;;;;;3.72;1.50;;;;;;;;;;5033016;28;20069;-61
2023/06/03 04:48:35;;;;;;;4.30;1.30;;;;;;;;;;5032989;28;20052;-60
2023/06/03 04:51:07;;;;;;;3.67;1.73;;;;;;;;;;5032766;28;20037;-62
2023/06/03 04:53:36;;;;;;;2.38;1.40;;;;;;;;;;5032781;28;20457;-60
2023/06/03 04:56:06;;;;;;;3.08;1.23;;;;;;;;;;5032286;28;20510;-60
2023/06/03 04:58:34;;;;;;;5.20;1.90;;;;;;;;;;5032570;28;20478;-62
2023/06/03 05:01:04;;;;;;;3.35;1.95;;;;;;;;;;5040744;28;20133;-61
2023/06/03 05:03:38;;;;;;;3.35;1.75;;;;;;;;;;5032617;28;20053;-63
2023/06/03 05:06:10;;;;;;;2.97;1.70;;;;;;;;;;5031719;28;20107;-61
2023/06/03 05:08:39;;;;;;;5.00;1.63;;;;;;;;;;5032601;28;20065;-61
2023/06/03 05:11:08;;;;;;;3.58;1.30;;;;;;;;;;5032507;28;20053;-60
2023/06/03 05:13:36;;;;;;;2.80;1.95;;;;;;;;;;5032415;28;20135;-61
2023/06/03 05:16:06;;;;;;;8.45;1.83;;;;;;;;;;5031882;28;20641;-60
2023/06/03 05:18:36;;;;;;;3.03;1.67;;;;;;;;;;5035315;28;20087;-60
2023/06/03 05:21:05;;;;;;;4.25;2.00;;;;;;;;;;5032318;28;20053;-61
2023/06/03 05:23:34;;;;;;;3.00;1.80;;;;;;;;;;5032694;28;20049;-61
2023/06/03 05:26:02;;;;;;;5.78;2.08;;;;;;;;;;5030754;28;20056;-63
2023/06/03 05:28:31;;;;;;;3.78;1.63;;;;;;;;;;5032768;28;20045;-61
2023/06/03 05:30:59;;;;;;;6.30;1.52;;;;;;;;;;5032335;28;20045;-61
2023/06/03 05:33:30;;;;;;;5.03;1.83;;;;;;;;;;5032940;28;20073;-62
2023/06/03 05:35:59;;;;;;;3.42;1.73;;;;;;;;;;5038235;28;20062;-62
2023/06/03 05:38:30;;;;;;;6.07;2.10;;;;;;;;;;5032831;28;20148;-65
2023/06/03 05:40:59;;;;;;;6.20;2.08;;;;;;;;;;5019832;28;20528;-62
2023/06/03 05:43:27;;;;;;;6.10;1.63;;;;;;;;;;5032376;28;20049;-64
2023/06/03 05:45:56;;;;;;;4.53;1.75;;;;;;;;;;5031582;28;20533;-62
2023/06/03 05:48:24;;;;;;;2.88;1.58;;;;;;;;;;5031773;28;20402;-62
2023/06/03 05:50:54;;;;;;;4.45;2.13;;;;;;;;;;5031980;28;20103;-61
2023/06/03 05:53:23;;;;;;;3.40;1.90;;;;;;;;;;5034205;28;20088;-61
2023/06/03 05:55:52;;;;;;;4.38;1.70;;;;;;;;;;5031185;28;20476;-62
2023/06/03 05:58:21;;;;;;;5.47;1.80;;;;;;;;;;5031748;28;20092;-62
2023/06/03 06:00:50;;;;;;;3.25;1.70;;;;;;;;;;5031616;28;20418;-61
2023/06/03 06:03:18;;;;;;;1.92;1.30;;;;;;;;;;5031211;28;20453;-61
2023/06/03 06:05:47;;;;;;;5.40;2.15;;;;;;;;;;5030917;28;20490;-63
2023/06/03 06:08:16;;;;;;;3.00;1.63;;;;;;;;;;5031734;28;20049;-62
2023/06/03 06:10:45;;;;;;;7.53;2.63;;;;;;;;;;5040172;28;20054;-62
2023/06/03 06:13:13;;;;;;;7.30;1.95;;;;;;;;;;5031393;28;20079;-62
2023/06/03 06:15:56;;;;;;;3.78;1.90;;;;;;;;;;5031141;28;20084;-61
2023/06/03 06:18:24;;;;;;;3.95;1.95;;;;;;;;;;5030887;28;20041;-63
2023/06/03 06:20:52;;;;;;;3.50;1.75;;;;;;;;;;5028523;28;20584;-61
2023/06/03 06:23:22;;;;;;;3.20;2.03;;;;;;;;;;5031544;28;20461;-63
2023/06/03 06:25:52;;;;;;;4.97;1.80;;;;;;;;;;5035205;28;20124;-61
2023/06/03 06:28:22;;;;;;;5.25;2.10;;;;;;;;;;5030942;28;20498;-63
2023/06/03 06:30:53;;;;;;;4.82;1.95;;;;;;;;;;5030687;28;20512;-61
2023/06/03 06:33:22;;;;;;;5.65;2.10;;;;;;;;;;5034577;28;20099;-61
2023/06/03 06:35:51;;;;;;;3.15;2.05;;;;;;;;;;5019285;28;20081;-60
2023/06/03 06:38:19;;;;;;;5.50;2.97;;;;;;;;;;5030264;28;20103;-60
2023/06/03 06:40:51;;;;;;;4.82;1.65;;;;;;;;;;5030013;28;20049;-62
2023/06/03 06:43:25;;;;;;;4.20;2.10;;;;;;;;;;5040684;28;20541;-62
2023/06/03 06:45:56;;;;;;;9.95;2.20;;;;;;;;;;5030295;28;20057;-61
2023/06/03 06:48:25;;;;;;;4.63;2.05;;;;;;;;;;5030937;28;20061;-61
2023/06/03 06:50:54;;;;;;;3.60;1.83;;;;;;;;;;5030970;28;20049;-62
2023/06/03 06:53:23;;;;;;;4.85;1.83;;;;;;;;;;5030187;28;20054;-63
2023/06/03 06:55:53;;;;;;;7.25;2.45;;;;;;;;;;5029686;28;20526;-63
2023/06/03 06:58:22;;;;;;;3.22;1.63;;;;;;;;;;5030440;28;20053;-62
2023/06/03 07:00:51;;;;;;;3.80;1.90;;;;;;;;;;5034650;28;20446;-61
2023/06/03 07:03:21;;;;;;;4.60;2.60;;;;;;;;;;5030369;28;20053;-62
2023/06/03 07:05:52;;;;;;;5.15;2.08;;;;;;;;;;5029948;28;20140;-62
2023/06/03 07:08:21;;;;;;;3.22;1.88;;;;;;;;;;5029820;28;20478;-62
2023/06/03 07:10:49;;;;;;;5.53;2.50;;;;;;;;;;5030186;28;20046;-63
2023/06/03 07:13:19;;;;;;;3.55;1.95;;;;;;;;;;5030658;28;20132;-62
2023/06/03 07:15:47;;;;;;;3.22;1.80;;;;;;;;;;5029612;28;20482;-63
2023/06/03 07:18:16;;;;;;;3.63;1.95;;;;;;;;;;5029687;28;20533;-62
2023/06/03 07:20:44;;;;;;;6.15;1.90;;;;;;;;;;5029982;28;20049;-63
2023/06/03 07:23:14;;;;;;;3.65;1.77;;;;;;;;;;5030022;28;20494;-62
2023/06/03 07:25:43;;;;;;;3.50;2.00;;;;;;;;;;5029413;28;20497;-63
2023/06/03 07:28:12;;;;;;;3.10;2.08;;;;;;;;;;5030058;28;20046;-62
2023/06/03 07:30:43;;;;;;;6.07;2.40;;;;;;;;;;5029646;28;20103;-64
2023/06/03 07:33:13;;;;;;;8.35;2.17;;;;;;;;;;5033174;28;20041;-62
2023/06/03 07:35:41;;;;;;;3.40;2.15;;;;;;;;;;5018786;28;20049;-61
2023/06/03 07:38:10;;;;;;;3.08;2.05;;;;;;;;;;5030408;28;20081;-62
2023/06/03 07:40:40;;;;;;;5.00;2.38;;;;;;;;;;5030016;28;20085;-62
2023/06/03 07:43:09;;;;;;;6.47;1.80;;;;;;;;;;5029671;28;20053;-63
2023/06/03 07:45:37;;;;;;;2.75;1.85;;;;;;;;;;5029062;28;20147;-62
2023/06/03 07:48:09;;;;;;;3.15;1.90;;;;;;;;;;5029622;28;20552;-62
2023/06/03 07:50:37;;;;;;;2.85;1.70;;;;;;;;;;5037968;28;20459;-62
2023/06/03 07:53:07;;;;;;;2.50;1.52;;;;;;;;;;5040474;28;20091;-62
2023/06/03 07:55:39;;;;;;;4.65;2.08;;;;;;;;;;5032998;28;20548;-64
2023/06/03 07:58:10;;;;;;;2.38;1.55;;;;;;;;;;5033574;28;20100;-62
2023/06/03 08:00:43;;;;;;;6.00;1.73;;;;;;;;;;5023552;28;20124;-64
2023/06/03 08:03:18;;;;;;;5.75;2.50;;;;;;;;;;5033651;28;20049;-62
2023/06/03 08:05:47;;;;;;;2.08;1.70;;;;;;;;;;5033239;28;20425;-62
2023/06/03 08:08:16;;;;;;;6.43;2.00;;;;;;;;;;5037346;28;20120;-63
2023/06/03 08:10:46;;;;;;;4.22;1.83;;;;;;;;;;5033390;28;20514;-61
2023/06/03 08:13:16;;;;;;;3.95;2.20;;;;;;;;;;5033781;28;20076;-63
2023/06/03 08:15:47;;;;;;;3.55;2.20;;;;;;;;;;5032844;28;20056;-62
2023/06/03 08:18:24;;;;;;;6.78;1.67;;;;;;;;;;5033336;28;20482;-63
2023/06/03 08:20:52;;;;;;;2.40;1.73;;;;;;;;;;5028685;28;20091;-63
2023/06/03 08:23:20;;;;;;;5.90;1.92;;;;;;;;;;5033886;28;20586;-62
2023/06/03 08:25:49;;;;;;;7.60;1.80;;;;;;;;;;5044493;28;20512;-62
2023/06/03 08:28:17;;;;;;;3.30;2.00;;;;;;;;;;5031385;28;20037;-62
2023/06/03 08:30:46;;;;;;;3.08;1.80;;;;;;;;;;5022397;28;20494;-63
2023/06/03 08:33:14;;;;;;;3.65;1.80;;;;;;;;;;5035508;28;20091;-64
2023/06/03 08:35:44;;;;;;;4.53;1.70;;;;;;;;;;5021927;28;20128;-63
2023/06/03 08:38:13;;;;;;;5.68;2.17;;;;;;;;;;5033533;28;20430;-61
2023/06/03 08:40:46;;;;;;;9.00;1.85;;;;;;;;;;5032905;28;20498;-64
2023/06/03 08:43:15;;;;;;;3.75;2.20;;;;;;;;;;5037791;28;20045;-65
2023/06/03 08:45:52;;;;;;;5.82;1.77;;;;;;;;;;5032743;28;20100;-63
2023/06/03 08:48:25;;;;;;;3.85;2.00;;;;;;;;;;5032692;28;20128;-63
2023/06/03 08:50:58;;;;;;;5.05;2.17;;;;;;;;;;5033408;28;20107;-64
2023/06/03 08:53:26;;;;;;;8.23;2.10;;;;;;;;;;5032832;28;20111;-63
2023/06/03 08:55:58;;;;;;;3.00;1.77;;;;;;;;;;5032259;28;20088;-63
2023/06/03 08:58:28;;;;;;;3.75;1.83;;;;;;;;;;5032695;28;20061;-63
2023/06/03 09:00:57;;;;;;;4.47;1.90;;;;;;;;;;5032690;28;20049;-62
2023/06/03 09:03:26;;;;;;;4.80;2.20;;;;;;;;;;5032345;28;20112;-62
2023/06/03 09:05:56;;;;;;;2.72;1.50;;;;;;;;;;5032640;28;20057;-63
2023/06/03 09:08:25;;;;;;;5.43;2.05;;;;;;;;;;5032484;28;20108;-62
2023/06/03 09:10:54;;;;;;;6.20;2.40;;;;;;;;;;5032709;28;20045;-62
2023/06/03 09:13:23;;;;;;;5.22;1.92;;;;;;;;;;5019847;28;20045;-62
2023/06/03 09:15:52;;;;;;;4.43;2.10;;;;;;;;;;5032763;28;20115;-62
2023/06/03 09:18:21;;;;;;;2.58;1.75;;;;;;;;;;5032481;28;20054;-62
2023/06/03 09:20:49;;;;;;;4.15;1.70;;;;;;;;;;5027306;28;20073;-64
2023/06/03 09:23:19;;;;;;;3.03;1.83;;;;;;;;;;5032862;28;20745;-64
2023/06/03 09:25:48;;;;;;;3.90;2.00;;;;;;;;;;5024749;28;20057;-62
2023/06/03 09:28:17;;;;;;;4.00;1.65;;;;;;;;;;5033210;28;20053;-63
2023/06/03 09:30:46;;;;;;;3.30;1.55;;;;;;;;;;5029778;28;20045;-62
2023/06/03 09:33:15;;;;;;;4.03;1.58;;;;;;;;;;5033040;28;20048;-64
2023/06/03 09:35:43;;;;;;;4.43;1.83;;;;;;;;;;5021484;28;20095;-67
2023/06/03 09:38:11;;;;;;;4.07;1.77;;;;;;;;;;5023096;28;20096;-63
2023/06/03 09:40:41;;;;;;;4.38;1.75;;;;;;;;;;5033452;28;20127;-63
2023/06/03 09:43:12;;;;;;;3.42;1.60;;;;;;;;;;5032212;28;20362;-64
2023/06/03 09:45:41;;;;;;;2.78;1.70;;;;;;;;;;5031505;28;20522;-62
2023/06/03 09:48:10;;;;;;;4.68;1.52;;;;;;;;;;5025263;28;20483;-62
2023/06/03 09:50:49;;;;;;;2.03;1.52;;;;;;;;;;5035797;28;20081;-61
2023/06/03 09:53:19;;;;;;;5.80;1.85;;;;;;;;;;5021186;28;20049;-64
2023/06/03 09:55:49;;;;;;;4.40;1.58;;;;;;;;;;5031116;28;20111;-63
2023/06/03 09:58:23;;;;;;;2.58;1.52;;;;;;;;;;5031089;28;20592;-62
2023/06/03 10:00:51;;;;;;;2.28;1.25;;;;;;;;;;5032024;28;20115;-63
2023/06/03 10:03:25;;;;;;;3.25;1.60;;;;;;;;;;5031484;28;20410;-62
2023/06/03 10:05:53;;;;;;;3.30;1.70;;;;;;;;;;5030908;28;20084;-63
2023/06/03 10:08:29;;;;;;;5.95;1.88;;;;;;;;;;5043889;28;20057;-62
2023/06/03 10:11:01;;;;;;;2.38;1.48;;;;;;;;;;5025197;28;20099;-61
2023/06/03 10:13:30;;;;;;;3.55;1.73;;;;;;;;;;5031339;28;20506;-62
2023/06/03 10:16:01;;;;;;;3.28;1.92;;;;;;;;;;5030506;28;20162;-62
2023/06/03 10:18:36;;;;;;;3.05;1.25;;;;;;;;;;5031299;28;20124;-62
2023/06/03 10:21:09;;;;;;;3.97;1.88;;;;;;;;;;5030866;28;20104;-62
2023/06/03 10:23:39;;;;;;;2.30;1.65;;;;;;;;;;5035976;28;20080;-62
2023/06/03 10:26:09;;;;;;;1.85;1.40;;;;;;;;;;5032476;28;20054;-62
2023/06/03 10:28:38;;;;;;;4.68;1.33;;;;;;;;;;5028923;28;20107;-64
2023/06/03 10:31:07;;;;;;;4.97;1.55;;;;;;;;;;5030971;28;20041;-63
2023/06/03 10:33:38;;;;;;;1.98;1.20;;;;;;;;;;5036428;28;20123;-64
2023/06/03 10:36:07;;;;;;;3.42;1.77;;;;;;;;;;5018186;28;20049;-62
2023/06/03 10:38:36;;;;;;;8.68;1.65;;;;;;;;;;5030776;28;20092;-64
2023/06/03 10:41:04;;;;;;;5.25;1.60;;;;;;;;;;5038655;28;20045;-63
2023/06/03 10:43:35;;;;;;;4.88;1.52;;;;;;;;;;5035270;28;20049;-63
2023/06/03 10:46:04;;;;;;;1.50;1.23;;;;;;;;;;5030459;28;20499;-63
2023/06/03 10:48:33;;;;;;;2.30;1.33;;;;;;;;;;5030741;28;20661;-63
2023/06/03 10:51:06;;;;;;;4.57;2.03;;;;;;;;;;5031148;28;20099;-64
2023/06/03 10:53:39;;;;;;;3.08;1.70;;;;;;;;;;5030191;28;20437;-64
2023/06/03 10:56:10;;;;;;;3.38;1.67;;;;;;;;;;5030142;28;20136;-64
2023/06/03 10:58:41;;;;;;;4.03;2.10;;;;;;;;;;5036864;28;20489;-62
2023/06/03 11:01:10;;;;;;;4.35;1.50;;;;;;;;;;5030924;28;20053;-62
2023/06/03 11:03:53;;;;;;;3.70;1.40;;;;;;;;;;5029906;28;20363;-61
2023/06/03 11:06:40;;;;;;;5.97;1.98;;;;;;;;;;5029855;28;20115;-62
2023/06/03 11:09:12;;;;;;;2.63;1.40;;;;;;;;;;5030413;28;20046;-61
2023/06/03 11:12:02;;;;;;;5.35;2.22;;;;;;;;;;5030437;28;20164;-62
2023/06/03 11:14:49;;;;;;;3.30;1.83;;;;;;;;;;5029941;28;21129;-63
2023/06/03 11:17:19;;;;;;;3.85;1.63;;;;;;;;;;4993484;28;20077;-62
2023/06/03 11:19:49;;;;;;;4.28;1.92;;;;;;;;;;5029801;28;20096;-62
2023/06/03 11:22:37;;;;;;;5.88;1.73;;;;;;;;;;5030354;28;20049;-63
2023/06/03 11:25:06;;;;;;;2.60;1.30;;;;;;;;;;5028929;28;20402;-63
2023/06/03 11:27:34;;;;;;;1.75;1.15;;;;;;;;;;5030038;28;20057;-62
2023/06/03 11:30:06;;;;;;;3.20;1.20;;;;;;;;;;5030158;28;20449;-63
2023/06/03 11:32:36;;;;;;;5.13;1.95;;;;;;;;;;5032135;28;20058;-63
2023/06/03 11:35:23;;;;;;;3.22;1.73;;;;;;;;;;5022957;28;20060;-64
2023/06/03 11:37:53;;;;;;;4.32;1.42;;;;;;;;;;5029962;28;20132;-64
2023/06/03 11:40:22;;;;;;;3.08;1.52;;;;;;;;;;5030038;28;20050;-62
2023/06/03 11:43:06;;;;;;;4.43;1.90;;;;;;;;;;5030450;28;20049;-62
2023/06/03 11:45:37;;;;;;;4.05;1.63;;;;;;;;;;5029175;28;20483;-63
2023/06/03 11:48:09;;;;;;;2.40;1.65;;;;;;;;;;5029802;28;20053;-63
2023/06/03 11:50:46;;;;;;;4.05;1.90;;;;;;;;;;5029448;28;20046;-62
2023/06/03 11:53:30;;;;;;;2.60;1.35;;;;;;;;;;5029775;28;20192;-63
2023/06/03 11:56:03;;;;;;;2.80;1.40;;;;;;;;;;5029369;28;20399;-63
2023/06/03 11:58:31;;;;;;;3.75;1.70;;;;;;;;;;5029791;28;20502;-62
2023/06/03 12:01:06;;;;;;;2.10;1.40;;;;;;;;;;5030168;28;20058;-62
2023/06/03 12:03:37;;;;;;;3.00;1.65;;;;;;;;;;5016856;28;20461;-63
2023/06/03 12:06:06;;;;;;;5.85;1.55;;;;;;;;;;5036522;28;20080;-63
2023/06/03 12:08:47;;;;;;;3.25;1.88;;;;;;;;;;5029441;28;20469;-65
2023/06/03 12:11:28;;;;;;;2.75;1.50;;;;;;;;;;5026569;28;20045;-63
2023/06/03 12:13:57;;;;;;;3.85;1.42;;;;;;;;;;5030126;28;20462;-64
2023/06/03 12:16:32;;;;;;;4.28;1.45;;;;;;;;;;5028501;28;20045;-65
2023/06/03 12:19:03;;;;;;;3.25;1.40;;;;;;;;;;5029456;28;20089;-65
2023/06/03 12:21:33;;;;;;;3.78;1.63;;;;;;;;;;5030084;28;20060;-65
2023/06/03 12:24:01;;;;;;;2.33;1.15;;;;;;;;;;5030683;28;20050;-65
2023/06/03 12:26:36;;;;;;;2.35;1.40;;;;;;;;;;5029438;28;20091;-66
2023/06/03 12:29:08;;;;;;;3.17;1.63;;;;;;;;;;5027867;28;20049;-67
2023/06/03 12:31:37;;;;;;;3.95;1.75;;;;;;;;;;5029441;28;20057;-63
2023/06/03 12:34:07;;;;;;;3.08;1.63;;;;;;;;;;5031019;28;20038;-64
2023/06/03 12:36:48;;;;;;;7.82;1.48;;;;;;;;;;5023977;28;20073;-63
2023/06/03 12:39:17;;;;;;;2.85;1.75;;;;;;;;;;5034630;28;20145;-64
2023/06/03 12:41:52;;;;;;;4.95;1.67;;;;;;;;;;5039464;28;20057;-63
2023/06/03 12:44:21;;;;;;;5.47;1.88;;;;;;;;;;5033525;28;20046;-63
2023/06/03 12:47:01;;;;;;;2.78;1.50;;;;;;;;;;5032687;28;20763;-62
2023/06/03 12:49:31;;;;;;;2.83;1.50;;;;;;;;;;5032737;28;20050;-63
2023/06/03 12:52:16;;;;;;;1.80;1.50;;;;;;;;;;5033101;28;20150;-63
2023/06/03 12:54:51;;;;;;;3.40;1.60;;;;;;;;;;5032508;28;20564;-63
2023/06/03 12:57:20;;;;;;;2.80;1.70;;;;;;;;;;5036094;28;20060;-64
2023/06/03 12:59:58;;;;;;;4.95;1.48;;;;;;;;;;5032527;28;20053;-64
2023/06/03 13:02:26;;;;;;;2.10;1.42;;;;;;;;;;5032589;28;20057;-67
2023/06/03 13:04:56;;;;;;;7.28;1.90;;;;;;;;;;5032066;28;20529;-64
2023/06/03 13:07:25;;;;;;;3.92;1.33;;;;;;;;;;5033177;28;20112;-63
2023/06/03 13:09:55;;;;;;;2.15;1.40;;;;;;;;;;5032569;28;20057;-65
2023/06/03 13:12:25;;;;;;;2.30;1.50;;;;;;;;;;5032591;28;20057;-63
2023/06/03 13:14:54;;;;;;;4.47;1.65;;;;;;;;;;5040968;28;20553;-64
2023/06/03 13:17:22;;;;;;;2.67;1.42;;;;;;;;;;5032678;28;20050;-62
2023/06/03 13:19:51;;;;;;;2.20;1.33;;;;;;;;;;5032291;28;20457;-62
2023/06/03 13:22:23;;;;;;;3.08;1.55;;;;;;;;;;5031590;28;20080;-65
2023/06/03 13:24:52;;;;;;;1.52;1.20;;;;;;;;;;5031856;28;20092;-63
2023/06/03 13:27:21;;;;;;;4.85;1.75;;;;;;;;;;5032080;28;20077;-63
2023/06/03 13:29:51;;;;;;;2.13;1.20;;;;;;;;;;5032680;28;20077;-63
2023/06/03 13:32:21;;;;;;;3.58;1.60;;;;;;;;;;5035995;28;20056;-63
2023/06/03 13:34:50;;;;;;;2.95;1.60;;;;;;;;;;5028787;28;20542;-64
2023/06/03 13:37:21;;;;;;;2.13;1.20;;;;;;;;;;5028156;28;20050;-67
2023/06/03 13:39:49;;;;;;;5.13;1.55;;;;;;;;;;5039521;28;20053;-63
2023/06/03 13:42:19;;;;;;;2.47;1.45;;;;;;;;;;5033066;28;20057;-63
2023/06/03 13:44:48;;;;;;;3.00;1.67;;;;;;;;;;5031966;28;20490;-66
2023/06/03 13:47:16;;;;;;;3.58;1.38;;;;;;;;;;5032954;28;20053;-64
2023/06/03 13:49:44;;;;;;;3.83;1.55;;;;;;;;;;5037346;28;20088;-65
2023/06/03 13:52:13;;;;;;;2.25;1.42;;;;;;;;;;5027597;28;20093;-64
2023/06/03 13:54:43;;;;;;;4.75;1.85;;;;;;;;;;5032090;28;20104;-62
2023/06/03 13:57:13;;;;;;;2.63;1.35;;;;;;;;;;5019799;28;20057;-64
2023/06/03 13:59:41;;;;;;;2.45;1.42;;;;;;;;;;5023901;28;20049;-64
2023/06/03 14:02:11;;;;;;;6.15;1.55;;;;;;;;;;5031541;28;20050;-65
2023/06/03 14:04:39;;;;;;;4.32;1.55;;;;;;;;;;5031103;28;20052;-63
2023/06/03 14:07:09;;;;;;;2.05;1.35;;;;;;;;;;5031952;28;20054;-62
2023/06/03 14:09:37;;;;;;;3.85;1.40;;;;;;;;;;5031242;28;20754;-63
2023/06/03 14:12:07;;;;;;;2.42;1.73;;;;;;;;;;5031541;28;20073;-64
2023/06/03 14:14:36;;;;;;;5.60;2.05;;;;;;;;;;5030686;28;20506;-64
2023/06/03 14:17:06;;;;;;;3.78;1.73;;;;;;;;;;5031456;28;20072;-63
2023/06/03 14:19:35;;;;;;;4.25;1.83;;;;;;;;;;5030861;28;20137;-62
2023/06/03 14:22:04;;;;;;;3.47;1.60;;;;;;;;;;5039822;28;20075;-62
2023/06/03 14:24:32;;;;;;;2.22;1.58;;;;;;;;;;5032578;28;20518;-64
2023/06/03 14:27:00;;;;;;;4.22;1.83;;;;;;;;;;5030784;28;20104;-64
2023/06/03 14:29:30;;;;;;;4.70;1.95;;;;;;;;;;5030269;28;20521;-63
2023/06/03 14:31:58;;;;;;;3.85;2.13;;;;;;;;;;5031512;28;20099;-64
2023/06/03 14:34:27;;;;;;;4.18;1.85;;;;;;;;;;5029496;28;20042;-62
2023/06/03 14:36:55;;;;;;;3.20;1.90;;;;;;;;;;5024491;28;20107;-62
2023/06/03 14:39:23;;;;;;;5.30;1.67;;;;;;;;;;5033552;28;20125;-62
2023/06/03 14:41:52;;;;;;;2.78;1.58;;;;;;;;;;5030755;28;20517;-63
2023/06/03 14:44:21;;;;;;;4.20;1.92;;;;;;;;;;5031229;28;20045;-62
2023/06/03 14:46:50;;;;;;;4.22;1.75;;;;;;;;;;5030772;28;20046;-61
2023/06/03 14:49:19;;;;;;;3.60;1.88;;;;;;;;;;5029871;28;20421;-63
2023/06/03 14:51:48;;;;;;;5.03;1.83;;;;;;;;;;5030635;28;20065;-62
2023/06/03 14:54:16;;;;;;;4.30;1.70;;;;;;;;;;5030754;28;20045;-62
2023/06/03 14:56:45;;;;;;;2.72;1.90;;;;;;;;;;5040011;28;20057;-61
2023/06/03 14:59:13;;;;;;;6.25;1.95;;;;;;;;;;5030270;28;20049;-61
2023/06/03 15:01:42;;;;;;;3.33;1.58;;;;;;;;;;5030561;28;20495;-62